Time;durP1;ratioP1;P1;durP2;ratioP2;P2;SDS_P1;SDS_P2;PMS_P1;PMS_P2;Temp;Humidity;BMP_temperature;BMP_pressure;BME280_temperature;BME280_humidity;BME280_pressure;Samples;Min_cycle;Max_cycle;Signal;HPM_P1;HPM_P2
2021/07/27 00:01:13;;;;;;;12.10;10.85;;;25.70;73.90;;;;;;5013299;28;20026;-61
2021/07/27 00:03:40;;;;;;;12.40;11.10;;;25.70;73.90;;;;;;5013308;28;20022;-61
2021/07/27 00:06:07;;;;;;;15.18;11.93;;;25.60;73.80;;;;;;5013487;28;20478;-61
2021/07/27 00:08:36;;;;;;;12.60;11.30;;;25.60;73.90;;;;;;5020502;28;20029;-61
2021/07/27 00:11:09;;;;;;;14.55;11.82;;;25.50;73.90;;;;;;5033017;28;20088;-61
2021/07/27 00:13:35;;;;;;;13.52;12.15;;;25.50;74.00;;;;;;5031020;28;20048;-61
2021/07/27 00:16:02;;;;;;;14.75;11.00;;;25.40;74.20;;;;;;5032920;28;20037;-61
2021/07/27 00:18:30;;;;;;;14.77;13.20;;;25.40;74.20;;;;;;5032579;28;20382;-61
2021/07/27 00:20:56;;;;;;;18.58;16.58;;;25.40;74.60;;;;;;5033106;28;20030;-61
2021/07/27 00:23:22;;;;;;;13.73;12.23;;;25.30;74.50;;;;;;5032731;28;20042;-61
2021/07/27 00:25:49;;;;;;;12.90;11.60;;;25.30;74.60;;;;;;5032635;28;20040;-61
2021/07/27 00:28:15;;;;;;;13.15;11.77;;;25.20;74.70;;;;;;5032780;28;20117;-61
2021/07/27 00:30:40;;;;;;;12.65;11.05;;;25.20;75.00;;;;;;5032156;28;20385;-61
2021/07/27 00:33:06;;;;;;;13.27;11.65;;;25.20;74.90;;;;;;5032731;28;20026;-61
2021/07/27 00:35:32;;;;;;;14.38;11.35;;;25.10;75.10;;;;;;5032664;28;20488;-61
2021/07/27 00:38:08;;;;;;;12.55;11.27;;;25.10;75.30;;;;;;5032787;28;20509;-61
2021/07/27 00:40:38;;;;;;;12.80;11.40;;;25.10;75.50;;;;;;5032621;28;20053;-61
2021/07/27 00:43:10;;;;;;;13.40;12.10;;;25.00;75.50;;;;;;5032724;28;20444;-61
2021/07/27 00:45:36;;;;;;;13.43;12.02;;;25.00;75.60;;;;;;5032769;28;20025;-61
2021/07/27 00:48:01;;;;;;;15.02;12.13;;;25.00;75.70;;;;;;5032661;28;20117;-61
2021/07/27 00:50:27;;;;;;;17.42;12.05;;;25.00;75.80;;;;;;5032713;28;20026;-61
2021/07/27 00:52:57;;;;;;;14.07;12.27;;;25.00;75.90;;;;;;5029718;28;20474;-61
2021/07/27 00:55:23;;;;;;;13.90;12.52;;;25.00;75.90;;;;;;5032633;28;20021;-61
2021/07/27 00:57:49;;;;;;;14.95;13.18;;;25.00;75.90;;;;;;5032871;28;20056;-61
2021/07/27 01:00:15;;;;;;;17.15;13.10;;;25.00;76.00;;;;;;5032320;28;20033;-61
2021/07/27 01:02:40;;;;;;;13.55;12.20;;;25.00;76.10;;;;;;5027947;28;20029;-61
2021/07/27 01:05:06;;;;;;;15.35;13.38;;;24.90;76.10;;;;;;5032778;28;20461;-61
2021/07/27 01:07:32;;;;;;;14.65;13.25;;;24.90;76.50;;;;;;5035624;28;20473;-61
2021/07/27 01:09:57;;;;;;;15.18;13.57;;;25.00;76.40;;;;;;5035707;28;20025;-61
2021/07/27 01:12:23;;;;;;;15.65;14.05;;;24.90;76.50;;;;;;5035971;28;20371;-61
2021/07/27 01:14:49;;;;;;;14.65;12.77;;;24.90;76.50;;;;;;5036674;28;20029;-61
2021/07/27 01:17:15;;;;;;;15.18;13.48;;;24.90;76.60;;;;;;5035120;28;20013;-61
2021/07/27 01:19:58;;;;;;;14.25;12.77;;;24.80;76.70;;;;;;5036064;28;20025;-62
2021/07/27 01:43:49;;;;;;;19.08;17.13;;;24.70;77.00;;;;;;5015718;28;20482;-62
2021/07/27 01:46:16;;;;;;;19.67;17.58;;;24.70;77.00;;;;;;5015684;28;20034;-62
2021/07/27 01:48:42;;;;;;;23.23;18.92;;;24.70;77.00;;;;;;5015873;28;20034;-62
2021/07/27 01:51:08;;;;;;;18.38;16.42;;;24.70;77.00;;;;;;5015783;28;20067;-62
2021/07/27 01:53:52;;;;;;;18.35;14.38;;;24.70;77.00;;;;;;5014159;28;20412;-62
2021/07/27 01:56:19;;;;;;;14.15;11.82;;;24.70;76.80;;;;;;5015823;28;20032;-62
2021/07/27 01:58:47;;;;;;;12.68;10.98;;;24.70;76.70;;;;;;5015442;28;20030;-62
2021/07/27 02:01:13;;;;;;;13.38;10.80;;;24.70;76.60;;;;;;5015722;28;20501;-62
2021/07/27 02:03:38;;;;;;;11.98;10.75;;;24.70;76.50;;;;;;5015385;28;20022;-62
2021/07/27 02:06:04;;;;;;;12.20;10.90;;;24.70;76.40;;;;;;5017346;28;20179;-62
2021/07/27 02:08:30;;;;;;;12.32;11.13;;;24.70;76.40;;;;;;5015140;28;20105;-62
2021/07/27 02:11:01;;;;;;;13.52;10.20;;;24.70;76.50;;;;;;5015234;28;20053;-62
2021/07/27 02:13:44;;;;;;;11.20;9.73;;;24.70;76.50;;;;;;5024779;28;20032;-62
2021/07/27 02:16:10;;;;;;;13.80;10.88;;;24.70;76.50;;;;;;5034925;28;20021;-62
2021/07/27 02:18:35;;;;;;;12.30;10.77;;;24.70;76.50;;;;;;5033677;28;20029;-62
2021/07/27 02:21:01;;;;;;;17.85;12.63;;;24.70;76.50;;;;;;5034673;28;20014;-62
2021/07/27 02:23:27;;;;;;;14.48;11.88;;;24.70;76.50;;;;;;5034497;28;20068;-62
2021/07/27 02:25:52;;;;;;;15.75;11.82;;;24.70;76.70;;;;;;5034621;28;20017;-62
2021/07/27 02:28:18;;;;;;;13.35;11.50;;;24.70;77.00;;;;;;5034595;28;20025;-62
2021/07/27 02:30:57;;;;;;;15.60;11.68;;;24.70;77.10;;;;;;5034184;28;20055;-62
2021/07/27 02:36:47;;;;;;;11.95;10.75;;;24.70;77.00;;;;;;5024804;28;20072;-61
2021/07/27 02:39:13;;;;;;;14.73;10.80;;;24.70;77.20;;;;;;5014958;28;20022;-61
2021/07/27 02:41:39;;;;;;;11.95;10.43;;;24.70;77.40;;;;;;5014861;28;20032;-61
2021/07/27 02:44:05;;;;;;;12.07;10.68;;;24.70;77.50;;;;;;5013399;28;20542;-62
2021/07/27 02:46:31;;;;;;;12.20;11.00;;;24.70;77.40;;;;;;5014480;28;20137;-62
2021/07/27 02:48:56;;;;;;;11.82;10.45;;;24.80;77.40;;;;;;5014765;28;20153;-62
2021/07/27 02:51:22;;;;;;;15.88;11.00;;;24.70;77.50;;;;;;5014482;28;20026;-62
2021/07/27 02:53:48;;;;;;;11.27;10.18;;;24.70;77.70;;;;;;5014717;28;20025;-62
2021/07/27 02:56:13;;;;;;;11.88;9.85;;;24.70;77.90;;;;;;5014332;28;20115;-62
2021/07/27 02:58:39;;;;;;;13.57;11.10;;;24.70;77.90;;;;;;5014361;28;20029;-62
2021/07/27 03:01:06;;;;;;;12.15;10.48;;;24.70;77.90;;;;;;5014182;28;20021;-62
2021/07/27 03:03:31;;;;;;;14.00;10.88;;;24.80;78.10;;;;;;5029087;28;20065;-62
2021/07/27 03:06:01;;;;;;;11.35;10.25;;;24.80;78.00;;;;;;5033615;28;20091;-62
2021/07/27 03:11:13;;;;;;;12.95;10.80;;;24.80;78.10;;;;;;5014386;28;20032;-62
2021/07/27 03:13:39;;;;;;;13.60;11.20;;;24.80;78.20;;;;;;5014191;28;20038;-62
2021/07/27 03:16:05;;;;;;;11.88;10.68;;;24.90;78.50;;;;;;5014248;28;20393;-62
2021/07/27 03:18:30;;;;;;;12.05;10.25;;;24.90;78.60;;;;;;5024164;28;20025;-62
2021/07/27 03:20:56;;;;;;;12.32;10.88;;;25.00;78.70;;;;;;5033733;28;20030;-62
2021/07/27 03:23:28;;;;;;;11.63;10.38;;;25.00;78.80;;;;;;5033542;28;20045;-62
2021/07/27 03:25:53;;;;;;;12.57;11.27;;;25.10;78.90;;;;;;5033573;28;20033;-62
2021/07/27 03:28:19;;;;;;;14.18;11.98;;;25.20;79.00;;;;;;5033402;28;20048;-62
2021/07/27 03:30:45;;;;;;;13.13;11.25;;;25.30;78.60;;;;;;5033364;28;20063;-61
2021/07/27 03:33:11;;;;;;;13.23;11.02;;;25.40;79.00;;;;;;5033554;28;20029;-62
2021/07/27 03:35:36;;;;;;;13.68;11.18;;;25.50;79.30;;;;;;5032940;28;20471;-63
2021/07/27 03:38:05;;;;;;;13.23;11.27;;;25.60;79.10;;;;;;5033485;28;20018;-63
2021/07/27 03:40:34;;;;;;;15.43;12.38;;;25.70;78.90;;;;;;5033266;28;20017;-63
2021/07/27 03:43:00;;;;;;;12.00;10.77;;;25.80;78.90;;;;;;5033287;28;20156;-62
2021/07/27 03:45:26;;;;;;;13.60;11.02;;;26.00;79.20;;;;;;5033236;28;20029;-64
2021/07/27 03:47:52;;;;;;;13.02;10.50;;;26.20;79.00;;;;;;5033013;28;20029;-63
2021/07/27 03:50:18;;;;;;;14.60;10.95;;;26.40;78.90;;;;;;5033121;28;20025;-63
2021/07/27 03:52:43;;;;;;;11.73;10.10;;;26.60;78.60;;;;;;5033076;28;20029;-64
2021/07/27 03:55:10;;;;;;;11.73;10.55;;;26.90;78.10;;;;;;5033354;28;20509;-64
2021/07/27 03:57:35;;;;;;;14.63;11.00;;;27.30;77.10;;;;;;5032930;28;20381;-63
2021/07/27 04:00:01;;;;;;;12.73;10.20;;;27.70;76.20;;;;;;5032961;28;20021;-64
2021/07/27 04:02:27;;;;;;;12.75;10.00;;;28.10;75.50;;;;;;5031646;28;20393;-64
2021/07/27 04:04:52;;;;;;;11.35;10.13;;;28.60;74.00;;;;;;5032178;28;20017;-64
2021/07/27 04:07:18;;;;;;;10.85;8.95;;;29.30;72.60;;;;;;5033072;28;20037;-64
2021/07/27 04:09:44;;;;;;;10.50;9.45;;;30.00;70.90;;;;;;5032772;28;20418;-64
2021/07/27 04:12:10;;;;;;;9.95;8.90;;;30.70;69.30;;;;;;5032857;28;20021;-64
2021/07/27 04:14:36;;;;;;;11.60;10.35;;;31.40;67.70;;;;;;5031465;28;20032;-64
2021/07/27 04:17:02;;;;;;;14.05;12.55;;;31.90;65.70;;;;;;5032823;28;20067;-64
2021/07/27 04:19:28;;;;;;;18.10;16.40;;;32.50;64.20;;;;;;5033060;28;20069;-64
2021/07/27 04:21:54;;;;;;;17.63;15.55;;;33.00;62.90;;;;;;5032581;28;20433;-63
2021/07/27 04:24:19;;;;;;;16.52;14.93;;;33.50;62.00;;;;;;5032819;28;20488;-63
2021/07/27 04:26:47;;;;;;;15.75;14.25;;;34.00;60.90;;;;;;5032725;28;20257;-64
2021/07/27 04:29:17;;;;;;;14.23;12.93;;;34.60;59.80;;;;;;5033025;28;20466;-64
2021/07/27 04:31:42;;;;;;;;;;;35.10;58.90;;;;;;5033163;28;20159;-64
2021/07/27 04:34:08;;;;;;;10.48;9.05;;;35.60;58.90;;;;;;5032734;28;20395;-64
2021/07/27 04:36:34;;;;;;;10.98;9.88;;;36.00;56.70;;;;;;5032034;28;20100;-64
2021/07/27 04:39:00;;;;;;;11.05;9.18;;;36.40;54.60;;;;;;5032657;28;20359;-64
2021/07/27 04:41:25;;;;;;;9.13;8.23;;;36.80;52.60;;;;;;5034421;28;20528;-64
2021/07/27 04:43:51;;;;;;;13.32;8.05;;;37.20;51.30;;;;;;5036538;28;20057;-64
2021/07/27 04:46:17;;;;;;;9.70;7.57;;;37.60;50.20;;;;;;5036457;28;20080;-64
2021/07/27 04:48:42;;;;;;;8.80;7.75;;;37.90;48.70;;;;;;5036673;28;20025;-64
2021/07/27 04:51:08;;;;;;;9.90;7.20;;;38.20;47.10;;;;;;5036436;28;20029;-64
2021/07/27 04:53:36;;;;;;;10.93;6.95;;;38.30;46.50;;;;;;5036502;28;20032;-64
2021/07/27 04:56:03;;;;;;;7.68;6.30;;;38.50;45.80;;;;;;5036272;28;20113;-64
2021/07/27 04:58:28;;;;;;;9.00;6.05;;;38.60;45.10;;;;;;5033000;28;20034;-64
2021/07/27 05:01:01;;;;;;;7.28;6.03;;;38.60;44.50;;;;;;5032477;28;20036;-64
2021/07/27 05:03:31;;;;;;;8.65;6.10;;;38.50;44.30;;;;;;5029387;28;20018;-61
2021/07/27 05:05:56;;;;;;;8.25;5.85;;;38.40;44.00;;;;;;5024784;28;20021;-61
2021/07/27 05:08:22;;;;;;;6.22;5.60;;;38.40;44.60;;;;;;5025704;28;20036;-62
2021/07/27 05:10:48;;;;;;;8.00;5.85;;;38.40;44.90;;;;;;5027638;28;20037;-61
2021/07/27 05:13:14;;;;;;;8.25;5.68;;;38.40;44.90;;;;;;5031870;28;20984;-62
2021/07/27 05:15:40;;;;;;;6.60;5.90;;;38.40;45.00;;;;;;5022755;28;20041;-62
2021/07/27 05:18:06;;;;;;;7.32;5.88;;;38.40;45.00;;;;;;5021292;28;20033;-62
2021/07/27 05:20:31;;;;;;;9.23;7.13;;;38.30;44.90;;;;;;5030253;28;20025;-62
2021/07/27 05:22:57;;;;;;;8.95;6.35;;;38.20;45.10;;;;;;5032326;28;20081;-61
2021/07/27 05:25:23;;;;;;;8.20;6.55;;;38.10;45.40;;;;;;5032231;28;20045;-62
2021/07/27 05:27:49;;;;;;;9.15;6.45;;;37.90;45.80;;;;;;5028143;28;20485;-61
2021/07/27 05:30:16;;;;;;;6.75;6.05;;;37.70;46.00;;;;;;5025907;28;20087;-62
2021/07/27 05:32:42;;;;;;;7.55;6.75;;;37.50;46.30;;;;;;5026526;28;20041;-62
2021/07/27 05:35:09;;;;;;;9.20;6.43;;;37.30;46.60;;;;;;5023864;28;20071;-61
2021/07/27 05:37:35;;;;;;;9.20;6.72;;;36.80;47.50;;;;;;5024383;28;20028;-61
2021/07/27 05:40:02;;;;;;;9.25;6.60;;;36.20;48.50;;;;;;5029480;28;20048;-61
2021/07/27 05:42:28;;;;;;;8.88;6.60;;;35.50;49.40;;;;;;5027862;28;20034;-62
2021/07/27 05:44:54;;;;;;;8.70;7.00;;;34.80;50.50;;;;;;5029608;28;20034;-60
2021/07/27 05:47:19;;;;;;;8.40;6.68;;;34.20;51.70;;;;;;5028792;28;20113;-62
2021/07/27 05:49:45;;;;;;;8.95;6.78;;;33.50;53.00;;;;;;5024891;28;20474;-62
2021/07/27 05:52:14;;;;;;;8.88;6.50;;;32.90;54.10;;;;;;5027352;28;20056;-61
2021/07/27 05:54:40;;;;;;;7.93;7.07;;;32.50;54.90;;;;;;5025390;28;20029;-61
2021/07/27 05:57:17;;;;;;;9.32;6.85;;;32.10;55.80;;;;;;5023130;28;20092;-62
2021/07/27 05:59:43;;;;;;;9.13;6.78;;;31.80;56.50;;;;;;5021526;28;20162;-62
2021/07/27 06:02:11;;;;;;;7.72;6.50;;;31.50;57.00;;;;;;5023533;28;20033;-61
2021/07/27 06:04:37;;;;;;;10.32;7.57;;;31.20;57.60;;;;;;5023682;28;20489;-62
2021/07/27 06:07:03;;;;;;;10.05;7.60;;;31.00;58.40;;;;;;5019249;28;20053;-60
2021/07/27 06:09:29;;;;;;;8.90;7.32;;;30.80;59.10;;;;;;5028735;28;20451;-61
2021/07/27 06:11:54;;;;;;;7.82;6.90;;;30.70;60.10;;;;;;5025942;28;20041;-62
2021/07/27 06:14:20;;;;;;;9.15;7.90;;;30.60;60.70;;;;;;5024439;28;20113;-61
2021/07/27 06:16:45;;;;;;;11.23;7.97;;;30.50;60.70;;;;;;5027933;28;20031;-61
2021/07/27 06:19:11;;;;;;;9.82;7.25;;;30.50;61.10;;;;;;5024093;28;20030;-60
2021/07/27 06:21:38;;;;;;;9.52;7.75;;;30.40;60.90;;;;;;5022335;28;20022;-61
2021/07/27 06:24:05;;;;;;;10.07;7.40;;;30.40;61.10;;;;;;5023094;28;20727;-62
2021/07/27 06:26:31;;;;;;;12.45;7.82;;;30.30;61.60;;;;;;5023765;28;20052;-61
2021/07/27 06:28:57;;;;;;;8.73;7.18;;;30.20;62.00;;;;;;5024223;28;20063;-62
2021/07/27 06:31:24;;;;;;;8.82;7.90;;;30.20;62.20;;;;;;5019755;28;20049;-62
2021/07/27 06:33:49;;;;;;;9.15;7.68;;;30.20;62.70;;;;;;5022085;28;20388;-62
2021/07/27 06:36:15;;;;;;;11.30;8.30;;;30.10;63.20;;;;;;5019694;28;20026;-62
2021/07/27 06:38:41;;;;;;;9.10;8.00;;;30.00;63.50;;;;;;5021453;28;20772;-61
2021/07/27 06:41:09;;;;;;;9.55;8.55;;;30.00;63.80;;;;;;5018299;28;20036;-62
2021/07/27 06:43:35;;;;;;;11.45;8.48;;;29.90;64.10;;;;;;5021595;28;20033;-63
2021/07/27 06:46:01;;;;;;;10.98;8.88;;;29.90;64.50;;;;;;5012015;28;20060;-63
2021/07/27 06:48:27;;;;;;;11.35;9.00;;;29.90;64.50;;;;;;5016762;28;20497;-62
2021/07/27 06:50:53;;;;;;;10.38;8.77;;;29.90;64.20;;;;;;5016350;28;20052;-62
2021/07/27 06:53:19;;;;;;;11.10;9.93;;;29.90;64.10;;;;;;5014860;28;20033;-63
2021/07/27 06:55:45;;;;;;;13.20;10.18;;;29.80;64.00;;;;;;5019153;28;20112;-63
2021/07/27 06:58:11;;;;;;;12.48;9.88;;;29.80;64.10;;;;;;5019369;28;20480;-62
2021/07/27 07:00:39;;;;;;;12.70;9.77;;;29.70;64.40;;;;;;5023150;28;20049;-63
2021/07/27 07:03:07;;;;;;;10.68;9.55;;;29.70;64.50;;;;;;5024747;28;20555;-63
2021/07/27 07:05:33;;;;;;;11.55;9.50;;;29.70;64.50;;;;;;5020429;28;20021;-62
2021/07/27 07:07:59;;;;;;;11.20;9.98;;;29.60;64.50;;;;;;5014278;28;20136;-62
2021/07/27 07:10:25;;;;;;;11.27;9.90;;;29.60;64.50;;;;;;5017210;28;20029;-63
2021/07/27 07:12:51;;;;;;;12.27;10.30;;;29.60;64.60;;;;;;5021369;28;20363;-62
2021/07/27 07:15:17;;;;;;;11.13;9.60;;;29.60;64.50;;;;;;5018005;28;20080;-62
2021/07/27 07:17:42;;;;;;;9.80;8.80;;;29.60;65.20;;;;;;5016330;28;20085;-62
2021/07/27 07:20:08;;;;;;;12.75;9.43;;;29.50;65.30;;;;;;5018118;28;20037;-62
2021/07/27 07:22:35;;;;;;;11.73;9.95;;;29.50;65.40;;;;;;5016310;28;20136;-62
2021/07/27 07:25:01;;;;;;;11.90;9.77;;;29.50;64.70;;;;;;5018619;28;20114;-63
2021/07/27 07:27:26;;;;;;;10.38;9.27;;;29.50;64.90;;;;;;5015325;28;20551;-63
2021/07/27 07:29:56;;;;;;;11.50;9.00;;;29.50;65.00;;;;;;5016518;28;20034;-62
2021/07/27 07:32:22;;;;;;;11.80;9.02;;;29.50;65.40;;;;;;5019295;28;20615;-62
2021/07/27 07:34:48;;;;;;;11.25;9.70;;;29.50;65.30;;;;;;5020029;28;20038;-63
2021/07/27 07:37:14;;;;;;;11.57;9.80;;;29.50;65.30;;;;;;5017209;28;20048;-63
2021/07/27 07:39:39;;;;;;;10.75;9.75;;;29.50;65.50;;;;;;5013521;28;20022;-63
2021/07/27 07:42:05;;;;;;;13.18;9.65;;;29.50;65.60;;;;;;5020801;28;20036;-63
2021/07/27 07:44:35;;;;;;;11.40;9.60;;;29.50;65.60;;;;;;5018924;28;20028;-63
2021/07/27 07:47:02;;;;;;;10.93;9.80;;;29.40;65.60;;;;;;5008829;28;20252;-62
2021/07/27 07:49:28;;;;;;;13.15;10.32;;;29.40;65.60;;;;;;5014488;28;20512;-63
2021/07/27 07:51:56;;;;;;;13.65;11.15;;;29.40;65.80;;;;;;5008970;28;20038;-63
2021/07/27 07:54:24;;;;;;;14.90;12.15;;;29.40;65.80;;;;;;5011597;28;20044;-63
2021/07/27 07:56:50;;;;;;;17.55;12.25;;;29.30;66.00;;;;;;5012404;28;20034;-63
2021/07/27 07:59:16;;;;;;;16.70;12.27;;;29.30;66.30;;;;;;5014171;28;21001;-63
2021/07/27 08:01:45;;;;;;;16.88;11.95;;;29.30;66.70;;;;;;5013934;28;20090;-63
2021/07/27 08:04:11;;;;;;;17.65;12.60;;;29.30;66.50;;;;;;5016523;28;20030;-63
2021/07/27 08:06:37;;;;;;;15.80;11.85;;;29.30;66.50;;;;;;5022160;28;20037;-63
2021/07/27 08:09:02;;;;;;;17.65;11.48;;;29.30;66.70;;;;;;5027237;28;20032;-63
2021/07/27 08:11:28;;;;;;;15.68;11.13;;;29.30;66.90;;;;;;5021698;28;20033;-63
2021/07/27 08:13:56;;;;;;;15.20;10.73;;;29.20;66.80;;;;;;5014900;28;20469;-63
2021/07/27 08:16:22;;;;;;;10.68;9.38;;;29.20;66.90;;;;;;5013580;28;20041;-63
2021/07/27 08:18:48;;;;;;;11.85;9.40;;;29.20;66.80;;;;;;5016754;28;20394;-63
2021/07/27 08:21:14;;;;;;;12.43;9.80;;;29.10;66.80;;;;;;5016506;28;20025;-63
2021/07/27 08:23:44;;;;;;;11.95;9.20;;;29.10;66.80;;;;;;5018318;28;20088;-63
2021/07/27 08:26:10;;;;;;;14.35;9.95;;;29.10;66.90;;;;;;5014257;28;20544;-62
2021/07/27 08:28:36;;;;;;;10.73;8.65;;;29.10;66.50;;;;;;5018614;28;20036;-62
2021/07/27 08:31:02;;;;;;;11.77;8.75;;;29.10;66.80;;;;;;5014981;28;20195;-62
2021/07/27 08:33:27;;;;;;;12.90;9.15;;;29.10;66.70;;;;;;5019420;28;20056;-62
2021/07/27 08:35:53;;;;;;;9.52;8.52;;;29.10;66.60;;;;;;5015562;28;20539;-62
2021/07/27 08:38:19;;;;;;;11.93;8.43;;;29.10;66.20;;;;;;5016714;28;20116;-63
2021/07/27 08:40:49;;;;;;;9.60;7.68;;;29.10;66.20;;;;;;5013599;28;20039;-63
2021/07/27 08:43:17;;;;;;;10.55;8.60;;;29.10;65.90;;;;;;5020820;28;20044;-62
2021/07/27 08:45:46;;;;;;;13.75;8.30;;;29.10;65.80;;;;;;5015037;28;20463;-62
2021/07/27 08:48:14;;;;;;;10.18;8.63;;;29.00;65.70;;;;;;5020901;28;20033;-62
2021/07/27 08:50:42;;;;;;;12.13;9.02;;;29.00;65.70;;;;;;5017571;28;20022;-63
2021/07/27 08:53:07;;;;;;;10.10;8.20;;;28.90;65.90;;;;;;5018065;28;20041;-62
2021/07/27 08:55:33;;;;;;;12.82;8.27;;;28.90;66.40;;;;;;5012085;28;20033;-63
2021/07/27 08:57:59;;;;;;;11.95;8.52;;;28.90;66.50;;;;;;5020231;28;20461;-62
2021/07/27 09:00:30;;;;;;;13.27;8.60;;;28.90;66.50;;;;;;5024855;28;20025;-61
2021/07/27 09:03:09;;;;;;;13.32;8.90;;;28.90;66.80;;;;;;5025908;28;20040;-63
2021/07/27 09:05:35;;;;;;;16.48;8.75;;;28.90;66.80;;;;;;5022617;28;20060;-62
2021/07/27 09:08:07;;;;;;;8.88;7.40;;;28.90;66.70;;;;;;5024307;28;20052;-62
2021/07/27 09:10:33;;;;;;;12.02;7.60;;;28.90;66.60;;;;;;5021218;28;20089;-60
2021/07/27 09:12:59;;;;;;;9.77;7.50;;;28.90;66.80;;;;;;5020566;28;20030;-62
2021/07/27 09:15:28;;;;;;;10.88;7.95;;;28.80;66.90;;;;;;5020189;28;20105;-62
2021/07/27 09:18:00;;;;;;;12.77;8.90;;;28.80;66.90;;;;;;5023883;28;20034;-62
2021/07/27 09:20:42;;;;;;;15.75;8.23;;;28.80;67.00;;;;;;5021276;28;20754;-61
2021/07/27 09:23:19;;;;;;;9.77;8.00;;;28.70;67.00;;;;;;5022242;28;20445;-62
2021/07/27 09:26:06;;;;;;;12.20;8.25;;;28.80;67.30;;;;;;5018695;28;20068;-60
2021/07/27 09:28:32;;;;;;;14.15;7.90;;;28.70;67.70;;;;;;5013964;28;20021;-63
2021/07/27 09:31:01;;;;;;;12.15;8.32;;;28.70;67.60;;;;;;5018830;28;20496;-63
2021/07/27 09:33:34;;;;;;;10.07;8.65;;;28.70;67.60;;;;;;5023422;28;20029;-62
2021/07/27 09:36:01;;;;;;;14.50;9.10;;;28.70;67.80;;;;;;5018397;28;20128;-62
2021/07/27 09:38:31;;;;;;;11.40;8.43;;;28.70;67.90;;;;;;5021504;28;20036;-63
2021/07/27 09:41:07;;;;;;;11.80;8.57;;;28.70;68.40;;;;;;5024283;28;20111;-63
2021/07/27 09:43:33;;;;;;;9.45;7.95;;;28.70;68.10;;;;;;5017841;28;20026;-62
2021/07/27 09:46:00;;;;;;;9.43;7.10;;;28.70;68.00;;;;;;5021062;28;20040;-62
2021/07/27 09:48:27;;;;;;;11.02;7.50;;;28.70;67.60;;;;;;5017698;28;20033;-61
2021/07/27 09:50:55;;;;;;;8.60;7.60;;;28.70;67.20;;;;;;5021234;28;20037;-62
2021/07/27 09:53:22;;;;;;;11.23;7.70;;;28.70;67.10;;;;;;5030991;28;20033;-61
2021/07/27 09:55:50;;;;;;;10.00;7.15;;;28.70;66.40;;;;;;5018529;28;20064;-62
2021/07/27 09:58:17;;;;;;;10.77;6.85;;;28.70;65.90;;;;;;5017792;28;20032;-63
2021/07/27 10:00:57;;;;;;;7.40;6.53;;;28.70;66.00;;;;;;5018874;28;20029;-64
2021/07/27 10:03:25;;;;;;;9.38;6.43;;;28.70;65.30;;;;;;5010313;28;20028;-62
2021/07/27 10:05:57;;;;;;;7.05;5.25;;;28.70;65.20;;;;;;5017024;28;20040;-61
2021/07/27 10:08:36;;;;;;;6.38;5.38;;;28.70;64.50;;;;;;5013084;28;20033;-61
2021/07/27 10:11:05;;;;;;;6.70;4.82;;;28.70;63.40;;;;;;5016127;28;20088;-62
2021/07/27 10:13:36;;;;;;;7.22;4.90;;;28.70;63.10;;;;;;5018263;28;20573;-62
2021/07/27 10:16:02;;;;;;;4.95;4.25;;;28.70;62.90;;;;;;5023910;28;20033;-62
2021/07/27 10:18:34;;;;;;;6.88;4.25;;;28.60;62.20;;;;;;5022554;28;20092;-62
2021/07/27 10:21:24;;;;;;;5.47;4.25;;;28.70;61.90;;;;;;5016390;28;20025;-62
2021/07/27 10:23:51;;;;;;;8.33;4.03;;;28.70;60.90;;;;;;5024304;28;20089;-61
2021/07/27 10:26:35;;;;;;;5.05;3.95;;;28.60;60.70;;;;;;5029288;28;20052;-60
2021/07/27 10:29:01;;;;;;;5.95;3.80;;;28.60;60.40;;;;;;5024905;28;20033;-62
2021/07/27 10:31:39;;;;;;;9.13;4.20;;;28.60;60.50;;;;;;5029761;28;20358;-60
2021/07/27 10:34:06;;;;;;;5.22;3.47;;;28.70;59.30;;;;;;5019974;28;20029;-62
2021/07/27 10:36:40;;;;;;;4.45;3.33;;;28.60;58.60;;;;;;5024929;28;20108;-61
2021/07/27 10:39:10;;;;;;;6.55;3.67;;;28.60;58.90;;;;;;5019353;28;20140;-62
2021/07/27 10:41:48;;;;;;;7.88;4.00;;;28.70;59.00;;;;;;5023645;28;20025;-62
2021/07/27 10:44:22;;;;;;;5.30;3.88;;;28.70;59.20;;;;;;5020457;28;20042;-61
2021/07/27 10:46:50;;;;;;;6.90;3.90;;;28.70;59.30;;;;;;5022328;28;20394;-61
2021/07/27 10:49:27;;;;;;;4.68;3.03;;;28.70;59.20;;;;;;5017216;28;20033;-62
2021/07/27 10:52:03;;;;;;;8.43;3.95;;;28.70;58.40;;;;;;5024048;28;21190;-62
2021/07/27 10:54:31;;;;;;;5.60;3.25;;;28.70;58.20;;;;;;5017813;28;20033;-62
2021/07/27 10:57:07;;;;;;;4.32;3.50;;;28.70;58.30;;;;;;5023756;28;20033;-62
2021/07/27 10:59:36;;;;;;;3.83;3.42;;;28.70;58.20;;;;;;5021537;28;20021;-62
2021/07/27 11:02:12;;;;;;;5.40;3.15;;;28.80;57.40;;;;;;5020930;28;20056;-62
2021/07/27 11:04:40;;;;;;;6.00;3.42;;;28.80;57.00;;;;;;5019963;28;20498;-62
2021/07/27 11:07:16;;;;;;;3.40;2.88;;;28.80;56.70;;;;;;5019177;28;20030;-61
2021/07/27 11:09:53;;;;;;;8.05;4.00;;;28.80;57.00;;;;;;5014097;28;20046;-62
2021/07/27 11:12:45;;;;;;;3.88;3.05;;;28.80;57.30;;;;;;5018249;28;20041;-62
2021/07/27 11:15:19;;;;;;;4.90;3.35;;;28.80;57.00;;;;;;5015257;28;20037;-61
2021/07/27 11:17:45;;;;;;;4.50;3.10;;;28.80;57.30;;;;;;5016690;28;20034;-61
2021/07/27 11:20:13;;;;;;;3.72;3.20;;;28.80;57.10;;;;;;5005363;28;20041;-61
2021/07/27 11:22:54;;;;;;;4.70;3.30;;;28.80;56.30;;;;;;5017140;28;20041;-60
2021/07/27 11:25:22;;;;;;;5.40;3.05;;;28.80;55.60;;;;;;5015869;28;20615;-61
2021/07/27 11:27:49;;;;;;;4.63;3.40;;;28.80;55.90;;;;;;5017335;28;20778;-60
2021/07/27 11:30:15;;;;;;;5.07;3.13;;;28.80;56.10;;;;;;5011794;28;20044;-62
2021/07/27 11:32:47;;;;;;;6.28;3.13;;;28.80;55.90;;;;;;5012450;28;20037;-62
2021/07/27 11:35:18;;;;;;;3.30;3.00;;;28.80;55.70;;;;;;5016749;28;20036;-62
2021/07/27 11:37:45;;;;;;;3.75;3.33;;;28.90;55.90;;;;;;5014618;28;20026;-61
2021/07/27 11:40:24;;;;;;;3.90;3.33;;;28.80;56.20;;;;;;5015383;28;20053;-62
2021/07/27 11:43:00;;;;;;;5.53;3.47;;;28.90;56.50;;;;;;5012154;28;20033;-61
2021/07/27 11:45:26;;;;;;;6.00;3.67;;;28.90;56.80;;;;;;5014805;28;20486;-61
2021/07/27 11:47:53;;;;;;;3.50;3.17;;;28.80;56.50;;;;;;5012568;28;20045;-61
2021/07/27 11:50:39;;;;;;;4.72;3.38;;;28.90;56.40;;;;;;5006266;28;20030;-61
2021/07/27 11:53:22;;;;;;;4.40;3.20;;;28.90;56.40;;;;;;5012149;28;20029;-61
2021/07/27 11:55:48;;;;;;;5.20;3.38;;;28.90;56.10;;;;;;5012731;28;20026;-61
2021/07/27 11:58:28;;;;;;;4.30;3.35;;;28.90;55.90;;;;;;5014377;28;20389;-61
2021/07/27 12:00:58;;;;;;;6.10;3.67;;;28.90;55.70;;;;;;5012363;28;20075;-61
2021/07/27 12:03:24;;;;;;;3.90;3.50;;;28.90;55.90;;;;;;5014112;28;20652;-61
2021/07/27 12:05:51;;;;;;;5.35;3.50;;;28.90;55.40;;;;;;5009023;28;20029;-62
2021/07/27 12:08:17;;;;;;;4.20;3.33;;;28.90;54.90;;;;;;5017695;28;20323;-62
2021/07/27 12:10:43;;;;;;;6.50;3.28;;;28.90;55.50;;;;;;5018326;28;20026;-60
2021/07/27 12:13:09;;;;;;;5.05;3.45;;;28.90;55.60;;;;;;5015844;28;20032;-61
2021/07/27 12:15:34;;;;;;;5.13;3.47;;;28.90;55.80;;;;;;5012804;28;20030;-61
2021/07/27 12:18:00;;;;;;;6.43;3.63;;;29.00;56.00;;;;;;5008933;28;20025;-61
2021/07/27 12:20:26;;;;;;;5.18;3.75;;;28.90;55.70;;;;;;5005639;28;20072;-62
2021/07/27 12:22:51;;;;;;;6.15;3.75;;;28.90;56.00;;;;;;5007769;28;20140;-61
2021/07/27 12:25:17;;;;;;;4.65;3.63;;;28.90;56.10;;;;;;5006679;28;20041;-61
2021/07/27 12:27:44;;;;;;;5.22;3.33;;;29.00;56.20;;;;;;5013773;28;20037;-61
2021/07/27 12:30:11;;;;;;;7.13;3.72;;;29.00;55.60;;;;;;5007542;28;20413;-61
2021/07/27 12:32:37;;;;;;;5.53;3.40;;;29.00;55.80;;;;;;5009112;28;20034;-62
2021/07/27 12:35:04;;;;;;;6.70;4.05;;;29.00;56.00;;;;;;5010654;28;20022;-62
2021/07/27 12:37:30;;;;;;;7.82;3.70;;;29.00;54.70;;;;;;5011187;28;20306;-61
2021/07/27 12:39:55;;;;;;;5.68;3.75;;;29.00;54.70;;;;;;5009636;28;20029;-60
2021/07/27 12:42:21;;;;;;;5.10;3.70;;;29.00;54.50;;;;;;5010285;28;20021;-60
2021/07/27 12:44:47;;;;;;;7.63;3.95;;;29.00;54.60;;;;;;5008994;28;20501;-61
2021/07/27 12:47:12;;;;;;;7.53;3.50;;;29.00;54.10;;;;;;5007387;28;21541;-61
2021/07/27 12:49:38;;;;;;;4.45;3.53;;;29.00;54.10;;;;;;5011005;28;20549;-60
2021/07/27 12:52:09;;;;;;;8.25;3.78;;;29.10;54.30;;;;;;5007360;28;20485;-61
2021/07/27 12:54:36;;;;;;;3.65;3.15;;;29.10;54.40;;;;;;5013654;28;20124;-61
2021/07/27 12:57:02;;;;;;;4.43;3.80;;;29.10;54.70;;;;;;5010707;28;20076;-59
2021/07/27 12:59:30;;;;;;;5.90;3.95;;;29.10;55.10;;;;;;5006766;28;20088;-61
2021/07/27 13:01:55;;;;;;;4.40;3.30;;;29.10;55.20;;;;;;5006767;28;20025;-60
2021/07/27 13:04:21;;;;;;;4.50;3.72;;;29.10;55.40;;;;;;5013339;28;20048;-62
2021/07/27 13:06:47;;;;;;;6.05;3.85;;;29.10;54.50;;;;;;5018842;28;20039;-61
2021/07/27 13:09:13;;;;;;;6.13;4.00;;;29.00;54.00;;;;;;5009640;28;20033;-62